sensor_id;sensor_type;location;lat;lon;timestamp;temperature;humidity
10384;DHT22;5238;43.508;4.980;2023-04-03T00:00:18;12.90;91.30
10384;DHT22;5238;43.508;4.980;2023-04-03T00:03:00;12.90;91.30
10384;DHT22;5238;43.508;4.980;2023-04-03T00:05:27;12.90;91.30
10384;DHT22;5238;43.508;4.980;2023-04-03T00:08:00;12.90;91.30
10384;DHT22;5238;43.508;4.980;2023-04-03T00:10:30;12.90;91.30
10384;DHT22;5238;43.508;4.980;2023-04-03T00:13:13;12.90;91.30
10384;DHT22;5238;43.508;4.980;2023-04-03T00:15:45;12.80;91.30
10384;DHT22;5238;43.508;4.980;2023-04-03T00:18:12;12.80;91.30
10384;DHT22;5238;43.508;4.980;2023-04-03T00:20:53;12.80;91.30
10384;DHT22;5238;43.508;4.980;2023-04-03T00:23:34;12.80;91.30
10384;DHT22;5238;43.508;4.980;2023-04-03T00:26:19;12.80;91.30
10384;DHT22;5238;43.508;4.980;2023-04-03T00:28:48;12.80;91.30
10384;DHT22;5238;43.508;4.980;2023-04-03T00:31:19;12.80;91.30
10384;DHT22;5238;43.508;4.980;2023-04-03T00:33:46;12.80;91.30
10384;DHT22;5238;43.508;4.980;2023-04-03T00:36:14;12.80;91.30
10384;DHT22;5238;43.508;4.980;2023-04-03T00:38:44;12.80;91.30
10384;DHT22;5238;43.508;4.980;2023-04-03T00:41:15;12.80;91.30
10384;DHT22;5238;43.508;4.980;2023-04-03T00:46:56;12.70;91.30
10384;DHT22;5238;43.508;4.980;2023-04-03T00:49:33;12.70;91.30
10384;DHT22;5238;43.508;4.980;2023-04-03T00:52:19;12.70;91.30
10384;DHT22;5238;43.508;4.980;2023-04-03T00:54:57;12.60;91.30
10384;DHT22;5238;43.508;4.980;2023-04-03T00:57:32;12.60;91.30
10384;DHT22;5238;43.508;4.980;2023-04-03T01:00:04;12.60;91.30
10384;DHT22;5238;43.508;4.980;2023-04-03T01:02:34;12.50;91.30
10384;DHT22;5238;43.508;4.980;2023-04-03T01:05:10;12.50;91.30
10384;DHT22;5238;43.508;4.980;2023-04-03T01:07:38;12.50;91.30
10384;DHT22;5238;43.508;4.980;2023-04-03T01:10:10;12.50;91.30
10384;DHT22;5238;43.508;4.980;2023-04-03T01:12:41;12.50;91.30
10384;DHT22;5238;43.508;4.980;2023-04-03T01:15:27;12.40;91.30
10384;DHT22;5238;43.508;4.980;2023-04-03T01:18:01;12.40;91.30
10384;DHT22;5238;43.508;4.980;2023-04-03T01:23:58;12.40;91.30
10384;DHT22;5238;43.508;4.980;2023-04-03T01:26:36;12.30;91.30
10384;DHT22;5238;43.508;4.980;2023-04-03T01:29:04;12.30;91.30
10384;DHT22;5238;43.508;4.980;2023-04-03T01:31:56;12.20;91.30
10384;DHT22;5238;43.508;4.980;2023-04-03T01:34:24;12.20;91.30
10384;DHT22;5238;43.508;4.980;2023-04-03T01:36:53;12.20;91.30
10384;DHT22;5238;43.508;4.980;2023-04-03T01:39:27;12.20;91.30
10384;DHT22;5238;43.508;4.980;2023-04-03T01:41:58;12.20;91.30
10384;DHT22;5238;43.508;4.980;2023-04-03T01:44:30;12.20;91.30
10384;DHT22;5238;43.508;4.980;2023-04-03T01:47:12;12.10;91.30
10384;DHT22;5238;43.508;4.980;2023-04-03T01:49:42;12.10;91.30
10384;DHT22;5238;43.508;4.980;2023-04-03T01:52:09;12.10;91.30
10384;DHT22;5238;43.508;4.980;2023-04-03T01:54:53;12.10;91.30
10384;DHT22;5238;43.508;4.980;2023-04-03T01:57:23;12.10;91.30
10384;DHT22;5238;43.508;4.980;2023-04-03T01:59:55;12.10;91.30
10384;DHT22;5238;43.508;4.980;2023-04-03T02:02:32;12.00;91.30
10384;DHT22;5238;43.508;4.980;2023-04-03T02:05:15;12.00;91.30
10384;DHT22;5238;43.508;4.980;2023-04-03T02:07:44;12.00;91.30
10384;DHT22;5238;43.508;4.980;2023-04-03T02:10:12;12.00;91.30
10384;DHT22;5238;43.508;4.980;2023-04-03T02:12:43;12.00;91.30
10384;DHT22;5238;43.508;4.980;2023-04-03T02:15:12;12.00;91.30
10384;DHT22;5238;43.508;4.980;2023-04-03T02:17:43;11.90;91.30
10384;DHT22;5238;43.508;4.980;2023-04-03T02:20:11;11.90;91.30
10384;DHT22;5238;43.508;4.980;2023-04-03T02:22:41;11.90;91.30
10384;DHT22;5238;43.508;4.980;2023-04-03T02:25:09;11.90;91.30
10384;DHT22;5238;43.508;4.980;2023-04-03T02:27:39;11.90;91.30
10384;DHT22;5238;43.508;4.980;2023-04-03T02:30:07;11.90;91.30
10384;DHT22;5238;43.508;4.980;2023-04-03T02:32:36;11.90;91.30
10384;DHT22;5238;43.508;4.980;2023-04-03T02:35:11;11.80;91.30
10384;DHT22;5238;43.508;4.980;2023-04-03T02:37:40;11.80;91.30
10384;DHT22;5238;43.508;4.980;2023-04-03T02:40:08;11.80;91.30
10384;DHT22;5238;43.508;4.980;2023-04-03T02:42:37;11.80;91.30
10384;DHT22;5238;43.508;4.980;2023-04-03T02:45:05;11.80;91.30
10384;DHT22;5238;43.508;4.980;2023-04-03T02:47:36;11.80;91.30
10384;DHT22;5238;43.508;4.980;2023-04-03T02:50:05;11.80;91.30
10384;DHT22;5238;43.508;4.980;2023-04-03T02:52:44;11.80;91.30
10384;DHT22;5238;43.508;4.980;2023-04-03T02:58:13;11.80;91.30
10384;DHT22;5238;43.508;4.980;2023-04-03T03:00:46;11.70;91.30
10384;DHT22;5238;43.508;4.980;2023-04-03T03:03:18;11.70;91.30
10384;DHT22;5238;43.508;4.980;2023-04-03T03:05:45;11.70;91.30
10384;DHT22;5238;43.508;4.980;2023-04-03T03:08:16;11.70;91.30
10384;DHT22;5238;43.508;4.980;2023-04-03T03:10:50;11.70;91.30
10384;DHT22;5238;43.508;4.980;2023-04-03T03:13:21;11.70;91.30
10384;DHT22;5238;43.508;4.980;2023-04-03T03:15:50;11.70;91.30
10384;DHT22;5238;43.508;4.980;2023-04-03T03:18:36;11.70;91.30
10384;DHT22;5238;43.508;4.980;2023-04-03T03:21:03;11.70;91.30
10384;DHT22;5238;43.508;4.980;2023-04-03T03:23:32;11.70;91.30
10384;DHT22;5238;43.508;4.980;2023-04-03T03:26:01;11.70;91.30
10384;DHT22;5238;43.508;4.980;2023-04-03T03:28:30;11.70;91.30
10384;DHT22;5238;43.508;4.980;2023-04-03T03:31:12;11.70;91.30
10384;DHT22;5238;43.508;4.980;2023-04-03T03:33:44;11.60;91.30
10384;DHT22;5238;43.508;4.980;2023-04-03T03:36:15;11.60;91.30
10384;DHT22;5238;43.508;4.980;2023-04-03T03:38:57;11.60;91.30
10384;DHT22;5238;43.508;4.980;2023-04-03T03:41:25;11.60;91.30
10384;DHT22;5238;43.508;4.980;2023-04-03T03:43:55;11.60;91.30
10384;DHT22;5238;43.508;4.980;2023-04-03T03:46:25;11.60;91.30
10384;DHT22;5238;43.508;4.980;2023-04-03T03:48:53;11.60;91.30
10384;DHT22;5238;43.508;4.980;2023-04-03T03:51:20;11.60;91.30
10384;DHT22;5238;43.508;4.980;2023-04-03T03:56:51;11.50;91.30
10384;DHT22;5238;43.508;4.980;2023-04-03T03:59:18;11.50;91.30
10384;DHT22;5238;43.508;4.980;2023-04-03T04:01:45;11.50;91.30
10384;DHT22;5238;43.508;4.980;2023-04-03T04:04:15;11.50;91.30
10384;DHT22;5238;43.508;4.980;2023-04-03T04:06:43;11.50;91.30
10384;DHT22;5238;43.508;4.980;2023-04-03T04:09:12;11.50;91.30
10384;DHT22;5238;43.508;4.980;2023-04-03T04:11:44;11.50;91.30
10384;DHT22;5238;43.508;4.980;2023-04-03T04:14:11;11.50;91.30
10384;DHT22;5238;43.508;4.980;2023-04-03T04:16:44;11.40;91.30
10384;DHT22;5238;43.508;4.980;2023-04-03T04:19:12;11.40;91.30
10384;DHT22;5238;43.508;4.980;2023-04-03T04:21:40;11.40;91.30
10384;DHT22;5238;43.508;4.980;2023-04-03T04:24:11;11.40;91.30
10384;DHT22;5238;43.508;4.980;2023-04-03T04:26:41;11.40;91.30
10384;DHT22;5238;43.508;4.980;2023-04-03T04:29:28;11.40;91.30
10384;DHT22;5238;43.508;4.980;2023-04-03T04:32:06;11.40;91.30
10384;DHT22;5238;43.508;4.980;2023-04-03T04:34:34;11.40;91.30
10384;DHT22;5238;43.508;4.980;2023-04-03T04:37:01;11.30;91.30
10384;DHT22;5238;43.508;4.980;2023-04-03T04:39:45;11.30;91.30
10384;DHT22;5238;43.508;4.980;2023-04-03T04:42:18;11.30;91.30
10384;DHT22;5238;43.508;4.980;2023-04-03T04:47:47;11.30;91.30
10384;DHT22;5238;43.508;4.980;2023-04-03T04:50:35;11.30;91.30
10384;DHT22;5238;43.508;4.980;2023-04-03T04:53:03;11.20;91.30
10384;DHT22;5238;43.508;4.980;2023-04-03T04:55:30;11.20;91.30
10384;DHT22;5238;43.508;4.980;2023-04-03T04:57:57;11.20;91.30
10384;DHT22;5238;43.508;4.980;2023-04-03T05:00:28;11.20;91.30
10384;DHT22;5238;43.508;4.980;2023-04-03T05:03:06;11.20;91.30
10384;DHT22;5238;43.508;4.980;2023-04-03T05:05:40;11.20;91.30
10384;DHT22;5238;43.508;4.980;2023-04-03T05:08:07;11.20;91.30
10384;DHT22;5238;43.508;4.980;2023-04-03T05:10:57;11.20;91.30
10384;DHT22;5238;43.508;4.980;2023-04-03T05:13:25;11.20;91.30
10384;DHT22;5238;43.508;4.980;2023-04-03T05:15:52;11.20;91.30
10384;DHT22;5238;43.508;4.980;2023-04-03T05:18:27;11.20;91.30
10384;DHT22;5238;43.508;4.980;2023-04-03T05:20:54;11.20;91.30
10384;DHT22;5238;43.508;4.980;2023-04-03T05:23:23;11.10;91.30
10384;DHT22;5238;43.508;4.980;2023-04-03T05:25:50;11.10;91.30
10384;DHT22;5238;43.508;4.980;2023-04-03T05:28:18;11.10;91.30
10384;DHT22;5238;43.508;4.980;2023-04-03T05:30:47;11.10;91.30
10384;DHT22;5238;43.508;4.980;2023-04-03T05:33:27;11.10;91.30
10384;DHT22;5238;43.508;4.980;2023-04-03T05:36:02;11.10;91.30
10384;DHT22;5238;43.508;4.980;2023-04-03T05:38:44;11.10;91.30
10384;DHT22;5238;43.508;4.980;2023-04-03T05:41:13;11.10;91.30
10384;DHT22;5238;43.508;4.980;2023-04-03T05:43:42;11.10;91.30
10384;DHT22;5238;43.508;4.980;2023-04-03T05:46:10;11.20;91.30
10384;DHT22;5238;43.508;4.980;2023-04-03T05:48:40;11.20;91.30
10384;DHT22;5238;43.508;4.980;2023-04-03T05:54:09;11.20;91.30
10384;DHT22;5238;43.508;4.980;2023-04-03T05:56:51;11.20;91.30
10384;DHT22;5238;43.508;4.980;2023-04-03T05:59:21;11.20;91.30
10384;DHT22;5238;43.508;4.980;2023-04-03T06:01:49;11.30;91.30
10384;DHT22;5238;43.508;4.980;2023-04-03T06:04:22;11.30;91.30
10384;DHT22;5238;43.508;4.980;2023-04-03T06:06:57;11.30;91.30
10384;DHT22;5238;43.508;4.980;2023-04-03T06:09:30;11.40;91.30
10384;DHT22;5238;43.508;4.980;2023-04-03T06:12:01;11.50;91.30
10384;DHT22;5238;43.508;4.980;2023-04-03T06:17:33;11.60;91.30
10384;DHT22;5238;43.508;4.980;2023-04-03T06:20:13;11.70;91.30
10384;DHT22;5238;43.508;4.980;2023-04-03T06:22:40;11.90;91.30
10384;DHT22;5238;43.508;4.980;2023-04-03T06:25:10;12.10;91.30
10384;DHT22;5238;43.508;4.980;2023-04-03T06:27:38;12.30;91.30
10384;DHT22;5238;43.508;4.980;2023-04-03T06:30:06;12.50;91.30
10384;DHT22;5238;43.508;4.980;2023-04-03T06:32:33;12.80;91.30
10384;DHT22;5238;43.508;4.980;2023-04-03T06:35:06;13.00;91.30
10384;DHT22;5238;43.508;4.980;2023-04-03T06:37:39;13.40;91.30
10384;DHT22;5238;43.508;4.980;2023-04-03T06:40:19;13.70;91.30
10384;DHT22;5238;43.508;4.980;2023-04-03T06:42:59;14.00;91.30
10384;DHT22;5238;43.508;4.980;2023-04-03T07:41:34;19.10;91.30
10384;DHT22;5238;43.508;4.980;2023-04-03T07:54:08;20.10;91.30
10384;DHT22;5238;43.508;4.980;2023-04-03T07:56:39;20.40;91.30
10384;DHT22;5238;43.508;4.980;2023-04-03T08:02:39;20.80;91.30
10384;DHT22;5238;43.508;4.980;2023-04-03T08:05:09;21.10;91.30
10384;DHT22;5238;43.508;4.980;2023-04-03T08:07:36;21.30;91.30
10384;DHT22;5238;43.508;4.980;2023-04-03T08:10:07;21.40;91.30
10384;DHT22;5238;43.508;4.980;2023-04-03T08:12:39;21.40;91.30
10384;DHT22;5238;43.508;4.980;2023-04-03T08:15:07;21.60;91.30
10384;DHT22;5238;43.508;4.980;2023-04-03T08:17:35;21.70;91.30
10384;DHT22;5238;43.508;4.980;2023-04-03T08:20:07;21.80;91.30
10384;DHT22;5238;43.508;4.980;2023-04-03T08:22:38;21.90;91.30
10384;DHT22;5238;43.508;4.980;2023-04-03T08:28:04;22.10;91.30
10384;DHT22;5238;43.508;4.980;2023-04-03T08:30:32;22.10;91.30
10384;DHT22;5238;43.508;4.980;2023-04-03T08:33:00;22.20;91.30
10384;DHT22;5238;43.508;4.980;2023-04-03T08:35:28;22.40;91.30
10384;DHT22;5238;43.508;4.980;2023-04-03T08:38:01;22.50;91.30
10384;DHT22;5238;43.508;4.980;2023-04-03T08:40:29;22.50;91.30
10384;DHT22;5238;43.508;4.980;2023-04-03T08:43:10;22.60;91.30
10384;DHT22;5238;43.508;4.980;2023-04-03T08:45:50;22.80;91.30
10384;DHT22;5238;43.508;4.980;2023-04-03T08:48:21;22.80;91.30
10384;DHT22;5238;43.508;4.980;2023-04-03T08:50:54;22.90;91.30
10384;DHT22;5238;43.508;4.980;2023-04-03T08:53:25;23.00;91.30
10384;DHT22;5238;43.508;4.980;2023-04-03T08:55:55;23.10;91.30
10384;DHT22;5238;43.508;4.980;2023-04-03T08:58:41;23.20;91.30
10384;DHT22;5238;43.508;4.980;2023-04-03T09:01:24;23.20;91.30
10384;DHT22;5238;43.508;4.980;2023-04-03T09:04:16;23.30;91.30
10384;DHT22;5238;43.508;4.980;2023-04-03T09:06:48;23.40;91.30
10384;DHT22;5238;43.508;4.980;2023-04-03T09:09:29;23.50;91.30
10384;DHT22;5238;43.508;4.980;2023-04-03T09:12:17;23.60;91.30
10384;DHT22;5238;43.508;4.980;2023-04-03T09:15:13;23.70;91.30
10384;DHT22;5238;43.508;4.980;2023-04-03T09:17:56;23.90;91.30
10384;DHT22;5238;43.508;4.980;2023-04-03T09:20:36;24.00;91.30
10384;DHT22;5238;43.508;4.980;2023-04-03T09:26:00;24.20;91.30
10384;DHT22;5238;43.508;4.980;2023-04-03T09:28:30;24.30;91.30
10384;DHT22;5238;43.508;4.980;2023-04-03T09:34:36;24.50;91.30
10384;DHT22;5238;43.508;4.980;2023-04-03T09:37:05;24.50;91.30
10384;DHT22;5238;43.508;4.980;2023-04-03T09:39:51;24.60;91.30
10384;DHT22;5238;43.508;4.980;2023-04-03T09:42:25;24.70;91.30
10384;DHT22;5238;43.508;4.980;2023-04-03T09:48:22;24.70;91.30
10384;DHT22;5238;43.508;4.980;2023-04-03T12:56:51;21.10;91.30
10384;DHT22;5238;43.508;4.980;2023-04-03T13:40:10;20.50;91.30
10384;DHT22;5238;43.508;4.980;2023-04-03T13:42:42;20.50;91.30
10384;DHT22;5238;43.508;4.980;2023-04-03T13:45:17;20.40;91.30
10384;DHT22;5238;43.508;4.980;2023-04-03T13:48:06;20.30;91.30
10384;DHT22;5238;43.508;4.980;2023-04-03T13:50:56;20.20;91.30
10384;DHT22;5238;43.508;4.980;2023-04-03T13:53:28;20.20;91.30
10384;DHT22;5238;43.508;4.980;2023-04-03T13:56:05;20.10;91.30
10384;DHT22;5238;43.508;4.980;2023-04-03T13:58:34;20.10;91.30
10384;DHT22;5238;43.508;4.980;2023-04-03T14:01:09;20.00;91.30
10384;DHT22;5238;43.508;4.980;2023-04-03T14:03:43;20.00;91.30
10384;DHT22;5238;43.508;4.980;2023-04-03T14:06:13;19.90;91.30
10384;DHT22;5238;43.508;4.980;2023-04-03T14:08:44;19.90;91.30
10384;DHT22;5238;43.508;4.980;2023-04-03T14:11:16;19.90;91.30
10384;DHT22;5238;43.508;4.980;2023-04-03T14:14:02;19.90;91.30
10384;DHT22;5238;43.508;4.980;2023-04-03T14:16:35;19.90;91.30
10384;DHT22;5238;43.508;4.980;2023-04-03T14:19:04;19.90;91.30
10384;DHT22;5238;43.508;4.980;2023-04-03T14:21:45;19.80;91.30
10384;DHT22;5238;43.508;4.980;2023-04-03T14:24:29;19.80;91.30
10384;DHT22;5238;43.508;4.980;2023-04-03T14:26:58;19.80;91.30
10384;DHT22;5238;43.508;4.980;2023-04-03T14:29:30;19.80;91.30
10384;DHT22;5238;43.508;4.980;2023-04-03T14:31:59;19.80;91.30
10384;DHT22;5238;43.508;4.980;2023-04-03T14:34:27;19.70;91.30
10384;DHT22;5238;43.508;4.980;2023-04-03T14:36:54;19.70;91.30
10384;DHT22;5238;43.508;4.980;2023-04-03T14:39:35;19.70;91.30
10384;DHT22;5238;43.508;4.980;2023-04-03T14:42:05;19.60;91.30
10384;DHT22;5238;43.508;4.980;2023-04-03T14:44:32;19.50;91.30
10384;DHT22;5238;43.508;4.980;2023-04-03T14:46:59;19.50;91.30
10384;DHT22;5238;43.508;4.980;2023-04-03T14:49:30;19.40;91.30
10384;DHT22;5238;43.508;4.980;2023-04-03T14:52:00;19.40;91.30
10384;DHT22;5238;43.508;4.980;2023-04-03T14:54:28;19.40;91.30
10384;DHT22;5238;43.508;4.980;2023-04-03T14:57:02;19.40;91.30
10384;DHT22;5238;43.508;4.980;2023-04-03T14:59:40;19.30;91.30
10384;DHT22;5238;43.508;4.980;2023-04-03T15:12:05;19.00;91.30
10384;DHT22;5238;43.508;4.980;2023-04-03T15:15:02;18.90;91.30
10384;DHT22;5238;43.508;4.980;2023-04-03T15:31:18;18.70;91.30
10384;DHT22;5238;43.508;4.980;2023-04-03T15:40:31;18.70;91.30
10384;DHT22;5238;43.508;4.980;2023-04-03T15:42:59;18.70;91.30
10384;DHT22;5238;43.508;4.980;2023-04-03T15:45:29;18.60;91.30
10384;DHT22;5238;43.508;4.980;2023-04-03T15:47:59;18.60;91.30
10384;DHT22;5238;43.508;4.980;2023-04-03T15:50:26;18.60;91.30
10384;DHT22;5238;43.508;4.980;2023-04-03T15:52:54;18.60;91.30
10384;DHT22;5238;43.508;4.980;2023-04-03T15:55:30;18.60;91.30
10384;DHT22;5238;43.508;4.980;2023-04-03T15:57:58;18.60;91.30
10384;DHT22;5238;43.508;4.980;2023-04-03T16:00:44;18.50;91.30
10384;DHT22;5238;43.508;4.980;2023-04-03T16:03:27;18.40;91.30
10384;DHT22;5238;43.508;4.980;2023-04-03T16:05:56;18.40;91.30
10384;DHT22;5238;43.508;4.980;2023-04-03T16:08:23;18.30;91.30
10384;DHT22;5238;43.508;4.980;2023-04-03T16:10:50;18.30;91.30
10384;DHT22;5238;43.508;4.980;2023-04-03T16:13:19;18.30;91.30
10384;DHT22;5238;43.508;4.980;2023-04-03T16:15:47;18.20;91.30
10384;DHT22;5238;43.508;4.980;2023-04-03T16:18:17;18.20;91.30
10384;DHT22;5238;43.508;4.980;2023-04-03T16:24:29;18.10;91.30
10384;DHT22;5238;43.508;4.980;2023-04-03T16:26:58;18.00;91.30
10384;DHT22;5238;43.508;4.980;2023-04-03T16:29:27;17.90;91.30
10384;DHT22;5238;43.508;4.980;2023-04-03T16:31:54;17.90;91.30
10384;DHT22;5238;43.508;4.980;2023-04-03T16:34:24;17.80;91.30
10384;DHT22;5238;43.508;4.980;2023-04-03T17:02:50;16.80;91.30
10384;DHT22;5238;43.508;4.980;2023-04-03T17:25:31;16.00;91.30
10384;DHT22;5238;43.508;4.980;2023-04-03T17:35:19;15.80;91.30
10384;DHT22;5238;43.508;4.980;2023-04-03T17:38:17;15.70;91.30
10384;DHT22;5238;43.508;4.980;2023-04-03T17:51:57;15.40;91.30
10384;DHT22;5238;43.508;4.980;2023-04-03T18:11:56;14.80;91.30
10384;DHT22;5238;43.508;4.980;2023-04-03T18:14:26;14.80;91.30
10384;DHT22;5238;43.508;4.980;2023-04-03T18:16:53;14.70;91.30
10384;DHT22;5238;43.508;4.980;2023-04-03T18:19:25;14.70;91.30
10384;DHT22;5238;43.508;4.980;2023-04-03T18:21:55;14.60;91.30
10384;DHT22;5238;43.508;4.980;2023-04-03T18:24:24;14.60;91.30
10384;DHT22;5238;43.508;4.980;2023-04-03T18:27:09;14.50;91.30
10384;DHT22;5238;43.508;4.980;2023-04-03T18:29:39;14.40;91.30
10384;DHT22;5238;43.508;4.980;2023-04-03T18:32:09;14.50;91.30
10384;DHT22;5238;43.508;4.980;2023-04-03T18:34:37;14.40;91.30
10384;DHT22;5238;43.508;4.980;2023-04-03T18:37:04;14.40;91.30
10384;DHT22;5238;43.508;4.980;2023-04-03T18:39:32;14.40;91.30
10384;DHT22;5238;43.508;4.980;2023-04-03T18:42:05;14.30;91.30
10384;DHT22;5238;43.508;4.980;2023-04-03T18:44:37;14.30;91.30
10384;DHT22;5238;43.508;4.980;2023-04-03T18:47:06;14.30;91.30
10384;DHT22;5238;43.508;4.980;2023-04-03T18:49:37;14.20;91.30
10384;DHT22;5238;43.508;4.980;2023-04-03T18:52:09;14.20;91.30
10384;DHT22;5238;43.508;4.980;2023-04-03T18:54:36;14.20;91.30
10384;DHT22;5238;43.508;4.980;2023-04-03T18:57:05;14.10;91.30
10384;DHT22;5238;43.508;4.980;2023-04-03T18:59:32;14.10;91.30
10384;DHT22;5238;43.508;4.980;2023-04-03T19:02:01;14.10;91.30
10384;DHT22;5238;43.508;4.980;2023-04-03T19:04:36;14.00;91.30
10384;DHT22;5238;43.508;4.980;2023-04-03T19:07:04;14.00;91.30
10384;DHT22;5238;43.508;4.980;2023-04-03T19:09:31;14.00;91.30
10384;DHT22;5238;43.508;4.980;2023-04-03T19:22:06;13.80;91.30
10384;DHT22;5238;43.508;4.980;2023-04-03T19:24:33;13.70;91.30
10384;DHT22;5238;43.508;4.980;2023-04-03T19:27:02;13.70;91.30
10384;DHT22;5238;43.508;4.980;2023-04-03T19:29:29;13.60;91.30
10384;DHT22;5238;43.508;4.980;2023-04-03T19:31:56;13.60;91.30
10384;DHT22;5238;43.508;4.980;2023-04-03T19:34:23;13.60;91.30
10384;DHT22;5238;43.508;4.980;2023-04-03T19:36:50;13.50;91.30
10384;DHT22;5238;43.508;4.980;2023-04-03T19:39:19;13.40;91.30
10384;DHT22;5238;43.508;4.980;2023-04-03T19:41:46;13.40;91.30
10384;DHT22;5238;43.508;4.980;2023-04-03T19:44:12;13.40;91.30
10384;DHT22;5238;43.508;4.980;2023-04-03T19:46:40;13.40;91.30
10384;DHT22;5238;43.508;4.980;2023-04-03T19:49:06;13.30;91.30
10384;DHT22;5238;43.508;4.980;2023-04-03T19:51:33;13.30;91.30
10384;DHT22;5238;43.508;4.980;2023-04-03T19:54:00;13.30;91.30
10384;DHT22;5238;43.508;4.980;2023-04-03T19:56:28;13.20;91.30
10384;DHT22;5238;43.508;4.980;2023-04-03T19:58:58;13.20;91.30
10384;DHT22;5238;43.508;4.980;2023-04-03T20:01:27;13.20;91.30
10384;DHT22;5238;43.508;4.980;2023-04-03T20:03:55;13.10;91.30
10384;DHT22;5238;43.508;4.980;2023-04-03T20:06:25;13.10;91.30
10384;DHT22;5238;43.508;4.980;2023-04-03T20:08:52;13.00;91.30
10384;DHT22;5238;43.508;4.980;2023-04-03T20:11:21;13.00;91.30
10384;DHT22;5238;43.508;4.980;2023-04-03T20:13:50;13.00;91.30
10384;DHT22;5238;43.508;4.980;2023-04-03T20:16:19;12.90;91.30
10384;DHT22;5238;43.508;4.980;2023-04-03T20:18:46;12.90;91.30
10384;DHT22;5238;43.508;4.980;2023-04-03T20:21:14;12.90;91.30
10384;DHT22;5238;43.508;4.980;2023-04-03T20:23:43;12.80;91.30
10384;DHT22;5238;43.508;4.980;2023-04-03T20:26:17;12.80;91.30
10384;DHT22;5238;43.508;4.980;2023-04-03T20:28:49;12.80;91.30
10384;DHT22;5238;43.508;4.980;2023-04-03T20:31:17;12.80;91.30
10384;DHT22;5238;43.508;4.980;2023-04-03T20:33:44;12.70;91.30
10384;DHT22;5238;43.508;4.980;2023-04-03T20:36:12;12.70;91.30
10384;DHT22;5238;43.508;4.980;2023-04-03T20:38:40;12.60;91.30
10384;DHT22;5238;43.508;4.980;2023-04-03T20:41:07;12.60;91.30
10384;DHT22;5238;43.508;4.980;2023-04-03T20:43:34;12.60;91.30
10384;DHT22;5238;43.508;4.980;2023-04-03T20:46:06;12.60;91.30
10384;DHT22;5238;43.508;4.980;2023-04-03T20:48:36;12.50;91.30
10384;DHT22;5238;43.508;4.980;2023-04-03T20:51:10;12.50;91.30
10384;DHT22;5238;43.508;4.980;2023-04-03T20:53:38;12.50;91.30
10384;DHT22;5238;43.508;4.980;2023-04-03T20:56:20;12.50;91.30
10384;DHT22;5238;43.508;4.980;2023-04-03T20:58:48;12.40;91.30
10384;DHT22;5238;43.508;4.980;2023-04-03T21:01:23;12.40;91.30
10384;DHT22;5238;43.508;4.980;2023-04-03T21:03:55;12.40;91.30
10384;DHT22;5238;43.508;4.980;2023-04-03T21:21:27;12.20;91.30
10384;DHT22;5238;43.508;4.980;2023-04-03T21:23:56;12.20;91.30
10384;DHT22;5238;43.508;4.980;2023-04-03T21:26:25;12.20;91.30
10384;DHT22;5238;43.508;4.980;2023-04-03T21:28:53;12.20;91.30
10384;DHT22;5238;43.508;4.980;2023-04-03T21:31:23;12.10;91.30
10384;DHT22;5238;43.508;4.980;2023-04-03T21:33:51;12.10;91.30
10384;DHT22;5238;43.508;4.980;2023-04-03T21:36:19;12.10;91.30
10384;DHT22;5238;43.508;4.980;2023-04-03T21:38:46;12.10;91.30
10384;DHT22;5238;43.508;4.980;2023-04-03T21:41:16;12.00;91.30
10384;DHT22;5238;43.508;4.980;2023-04-03T21:43:46;12.00;91.30
10384;DHT22;5238;43.508;4.980;2023-04-03T21:46:13;12.00;91.30
10384;DHT22;5238;43.508;4.980;2023-04-03T21:48:40;12.00;91.30
10384;DHT22;5238;43.508;4.980;2023-04-03T21:51:08;11.90;91.30
10384;DHT22;5238;43.508;4.980;2023-04-03T21:53:37;11.90;91.30
10384;DHT22;5238;43.508;4.980;2023-04-03T21:56:06;11.90;91.30
10384;DHT22;5238;43.508;4.980;2023-04-03T21:58:34;11.90;91.30
10384;DHT22;5238;43.508;4.980;2023-04-03T22:01:08;11.80;91.30
10384;DHT22;5238;43.508;4.980;2023-04-03T22:03:39;11.80;91.30
10384;DHT22;5238;43.508;4.980;2023-04-03T22:06:14;11.80;91.30
10384;DHT22;5238;43.508;4.980;2023-04-03T22:08:42;11.80;91.30
10384;DHT22;5238;43.508;4.980;2023-04-03T22:11:10;11.70;91.30
10384;DHT22;5238;43.508;4.980;2023-04-03T22:13:41;11.70;91.30
10384;DHT22;5238;43.508;4.980;2023-04-03T22:16:09;11.70;91.30
10384;DHT22;5238;43.508;4.980;2023-04-03T22:18:37;11.70;91.30
10384;DHT22;5238;43.508;4.980;2023-04-03T22:21:08;11.70;91.30
10384;DHT22;5238;43.508;4.980;2023-04-03T22:23:38;11.60;91.30
10384;DHT22;5238;43.508;4.980;2023-04-03T22:26:08;11.60;91.30
10384;DHT22;5238;43.508;4.980;2023-04-03T22:28:37;11.60;91.30
10384;DHT22;5238;43.508;4.980;2023-04-03T22:31:05;11.60;91.30
10384;DHT22;5238;43.508;4.980;2023-04-03T22:33:36;11.50;91.30
10384;DHT22;5238;43.508;4.980;2023-04-03T22:36:08;11.50;91.30
10384;DHT22;5238;43.508;4.980;2023-04-03T22:38:35;11.50;91.30
10384;DHT22;5238;43.508;4.980;2023-04-03T22:41:06;11.50;91.30
10384;DHT22;5238;43.508;4.980;2023-04-03T22:43:36;11.50;91.30
10384;DHT22;5238;43.508;4.980;2023-04-03T22:46:04;11.50;91.30
10384;DHT22;5238;43.508;4.980;2023-04-03T22:48:31;11.40;91.30
10384;DHT22;5238;43.508;4.980;2023-04-03T22:50:58;11.40;91.30
10384;DHT22;5238;43.508;4.980;2023-04-03T22:53:26;11.40;91.30
10384;DHT22;5238;43.508;4.980;2023-04-03T22:55:54;11.40;91.30
10384;DHT22;5238;43.508;4.980;2023-04-03T22:58:22;11.40;91.30
10384;DHT22;5238;43.508;4.980;2023-04-03T23:00:53;11.30;91.30
10384;DHT22;5238;43.508;4.980;2023-04-03T23:03:21;11.40;91.30
10384;DHT22;5238;43.508;4.980;2023-04-03T23:05:53;11.30;91.30
10384;DHT22;5238;43.508;4.980;2023-04-03T23:08:21;11.30;91.30
10384;DHT22;5238;43.508;4.980;2023-04-03T23:10:48;11.30;91.30
10384;DHT22;5238;43.508;4.980;2023-04-03T23:13:15;11.30;91.30
10384;DHT22;5238;43.508;4.980;2023-04-03T23:15:51;11.30;91.30
10384;DHT22;5238;43.508;4.980;2023-04-03T23:18:18;11.20;91.30
10384;DHT22;5238;43.508;4.980;2023-04-03T23:20:45;11.20;91.30
10384;DHT22;5238;43.508;4.980;2023-04-03T23:23:16;11.20;91.30
10384;DHT22;5238;43.508;4.980;2023-04-03T23:25:43;11.20;91.30
10384;DHT22;5238;43.508;4.980;2023-04-03T23:28:12;11.20;91.30
10384;DHT22;5238;43.508;4.980;2023-04-03T23:30:39;11.10;91.30
10384;DHT22;5238;43.508;4.980;2023-04-03T23:33:18;11.10;91.30
10384;DHT22;5238;43.508;4.980;2023-04-03T23:35:46;11.10;91.30
10384;DHT22;5238;43.508;4.980;2023-04-03T23:38:19;11.10;91.30
